|

機場天氣預報 (TAF)

機場天氣預報 (TAF) 載述關於某個機場在預測期內預料會出現的氣象要素。

香港天文台在 17 年 04 月 29 日 07 時 00 分最新發出的香港國際機場天氣預報

TAF VHHH 282300Z 2900/3006 VRB05KT 8000 FEW030 TX27/2906Z TX28/3005Z TN22/2923Z BECMG 2901/2903 29010KT BECMG 2909/2911 12010KT TEMPO 2911/2924 VRB05KT=

(下次更新時間:17年04月29日13時00分)

機場天氣預報電碼經解碼後:-

香港天文台發出 2017 年 04 月 29 日 00 協調世界時 至 2017 年 04 月 30 日 06 協調世界時 的機場天氣預報:
 

時間(協調世界時) 能見度 天氣狀況 雲層 雲層高度
00 時 至 01 時 5 海里/小時 (風向不定) 8 公里 無重要天氣狀況
1-2
3000 呎
2017 年 04 月 29 日 01 時 至 03 時 期間逐漸轉變為 西北偏西風 (290 o) 10 海里/小時 8 公里 無重要天氣狀況
1-2
3000 呎
2017 年 04 月 29 日 09 時 至 11 時 期間逐漸轉變為 東南偏東風 (120 o) 10 海里/小時 8 公里 無重要天氣狀況
1-2
3000 呎
2017 年 04 月 29 日 11 時 至 24 時 期間間中 5 海里/小時 (風向不定) 8 公里 無重要天氣狀況
1-2
3000 呎

時間(協調世界時) 氣溫
2017 年 04 月 29 日 06 時
最高27 oC
2017 年 04 月 30 日 05 時
最高28 oC
2017 年 04 月 29 日 23 時
最低22 oC

份: 雲層是以估計天空被雲遮蔽之總面積來評定。把天空分為八份,1 份即是八份之一的天空被雲遮蔽,2 份即是八份之二的天空被雲遮蔽,如此類推。
  0 份 = 天朗氣清,1-2 份 = 稀薄雲層,3-4 份 = 零散雲層,5-7 份 = 疏鬆雲層,8 份 = 天色陰暗。
若想進一步瞭解機場天氣預報(TAF)的編碼,請參看剖析TAF電碼的意義
若想進一步瞭解雲,請參看香港常見的雲
 
香港國際機場航空天氣報告資料 本港地區航空天氣預報
 
版權及聲明